Time;durP1;ratioP1;P1;durP2;ratioP2;P2;SDS_P1;SDS_P2;PMS_P1;PMS_P2;Temp;Humidity;BMP_temperature;BMP_pressure;BME280_temperature;BME280_humidity;BME280_pressure;Samples;Min_cycle;Max_cycle;Signal;HPM_P1;HPM_P2
2023/09/04 00:02:24;;;;;;;4.70;3.20;;;12.40;99.90;;;;;;5043395;28;20098;-69
2023/09/04 00:04:51;;;;;;;4.78;3.38;;;12.30;99.90;;;;;;5037787;28;20052;-69
2023/09/04 00:07:18;;;;;;;4.07;3.13;;;12.30;99.90;;;;;;5033102;28;20053;-68
2023/09/04 00:09:44;;;;;;;3.88;3.30;;;12.30;99.90;;;;;;5044265;28;20393;-69
2023/09/04 00:12:10;;;;;;;3.80;3.22;;;12.20;99.90;;;;;;5032322;28;20037;-69
2023/09/04 00:14:36;;;;;;;5.93;3.83;;;12.20;99.90;;;;;;5039501;28;20171;-69
2023/09/04 00:17:01;;;;;;;3.50;3.00;;;12.20;99.90;;;;;;5039220;28;20033;-69
2023/09/04 00:19:27;;;;;;;6.45;3.72;;;12.10;99.90;;;;;;5042085;28;20128;-68
2023/09/04 00:21:52;;;;;;;6.78;3.88;;;12.10;99.90;;;;;;5028521;28;20044;-69
2023/09/04 00:24:20;;;;;;;4.07;3.20;;;12.10;99.90;;;;;;5041481;28;20623;-69
2023/09/04 00:26:46;;;;;;;5.40;3.38;;;12.10;99.90;;;;;;5030819;28;20045;-68
2023/09/04 00:29:11;;;;;;;5.57;3.75;;;12.00;99.90;;;;;;5039963;28;20045;-68
2023/09/04 00:31:37;;;;;;;3.47;3.10;;;11.90;99.90;;;;;;5033158;28;20037;-68
2023/09/04 00:34:02;;;;;;;5.38;3.33;;;11.90;99.90;;;;;;5042181;28;20056;-68
2023/09/04 00:36:28;;;;;;;5.38;3.42;;;11.80;99.90;;;;;;5031259;28;20041;-68
2023/09/04 00:38:53;;;;;;;4.38;3.00;;;11.80;99.90;;;;;;5037493;28;20128;-68
2023/09/04 00:41:19;;;;;;;4.25;3.05;;;11.90;99.90;;;;;;5031904;28;20065;-69
2023/09/04 00:43:44;;;;;;;4.10;2.70;;;11.90;99.90;;;;;;5034585;28;20041;-68
2023/09/04 00:46:11;;;;;;;4.22;3.08;;;11.80;99.90;;;;;;5039390;28;20404;-69
2023/09/04 00:48:39;;;;;;;4.57;3.42;;;11.80;99.90;;;;;;5032817;28;20037;-68
2023/09/04 00:51:05;;;;;;;6.22;3.72;;;11.80;99.90;;;;;;5034823;28;20051;-68
2023/09/04 00:53:32;;;;;;;5.55;3.83;;;11.80;99.90;;;;;;5036251;28;20524;-68
2023/09/04 00:56:00;;;;;;;5.22;3.65;;;11.80;99.90;;;;;;5036413;28;20041;-68
2023/09/04 00:58:26;;;;;;;4.80;3.60;;;11.80;99.90;;;;;;5036560;28;20838;-69
2023/09/04 01:00:52;;;;;;;4.20;3.75;;;11.70;99.90;;;;;;5040173;28;20130;-73
2023/09/04 01:03:19;;;;;;;6.05;4.28;;;11.70;99.90;;;;;;5038132;28;20470;-68
2023/09/04 01:05:45;;;;;;;4.03;3.42;;;11.70;99.90;;;;;;5032189;28;20080;-69
2023/09/04 01:08:12;;;;;;;4.72;3.20;;;11.60;99.90;;;;;;5039671;28;20087;-68
2023/09/04 01:10:44;;;;;;;3.78;3.22;;;11.60;99.90;;;;;;5032660;28;20069;-68
2023/09/04 01:13:17;;;;;;;4.25;3.38;;;11.60;99.90;;;;;;5037862;28;20033;-68
2023/09/04 01:15:44;;;;;;;4.38;3.40;;;11.50;99.90;;;;;;5031918;28;20091;-68
2023/09/04 01:18:10;;;;;;;3.58;2.78;;;11.50;99.90;;;;;;5036303;28;20037;-68
2023/09/04 01:20:36;;;;;;;6.53;3.60;;;11.40;99.90;;;;;;5037865;28;20135;-68
2023/09/04 01:23:02;;;;;;;3.72;3.13;;;11.40;99.90;;;;;;5042622;28;20498;-68
2023/09/04 01:25:44;;;;;;;5.20;3.47;;;11.40;99.90;;;;;;5041957;28;20045;-68
2023/09/04 01:28:33;;;;;;;4.10;3.60;;;11.40;99.90;;;;;;5037290;28;20167;-68
2023/09/04 01:31:04;;;;;;;4.50;3.42;;;11.30;99.90;;;;;;5041922;28;20068;-68
2023/09/04 01:33:36;;;;;;;4.72;3.50;;;11.30;99.90;;;;;;5040439;28;20033;-68
2023/09/04 01:36:05;;;;;;;5.05;3.53;;;11.30;99.90;;;;;;5034303;28;20037;-68
2023/09/04 01:38:33;;;;;;;5.15;3.80;;;11.30;99.90;;;;;;5039166;28;20051;-68
2023/09/04 01:40:58;;;;;;;3.80;2.80;;;11.20;99.90;;;;;;5044142;28;20103;-69
2023/09/04 01:43:24;;;;;;;2.78;2.40;;;11.20;99.90;;;;;;5022591;28;20072;-68
2023/09/04 01:45:50;;;;;;;3.22;2.80;;;11.20;99.90;;;;;;5038329;28;20048;-68
2023/09/04 01:48:15;;;;;;;3.00;2.47;;;11.20;99.90;;;;;;5035372;28;20056;-70
2023/09/04 01:50:41;;;;;;;4.28;2.78;;;11.20;99.90;;;;;;5029597;28;20040;-68
2023/09/04 01:53:06;;;;;;;2.85;2.33;;;11.20;99.90;;;;;;5043580;28;20087;-68
2023/09/04 01:55:32;;;;;;;2.72;2.40;;;11.20;99.90;;;;;;5038992;28;20101;-68
2023/09/04 01:57:57;;;;;;;2.85;2.53;;;11.10;99.90;;;;;;5033684;28;20044;-67
2023/09/04 02:00:23;;;;;;;2.92;2.40;;;11.10;99.90;;;;;;5036914;28;20048;-67
2023/09/04 02:02:49;;;;;;;3.78;2.97;;;11.10;99.90;;;;;;5038542;28;20041;-68
2023/09/04 02:05:15;;;;;;;2.80;2.42;;;11.00;99.90;;;;;;5037130;28;20389;-68
2023/09/04 02:07:40;;;;;;;2.75;2.50;;;11.10;99.90;;;;;;5042249;28;20041;-68
2023/09/04 02:10:06;;;;;;;3.05;2.72;;;11.10;99.90;;;;;;5036459;28;20382;-68
2023/09/04 02:12:32;;;;;;;4.00;3.10;;;11.00;99.90;;;;;;5040423;28;20036;-68
2023/09/04 02:14:58;;;;;;;4.22;3.65;;;11.10;99.90;;;;;;5039915;28;20499;-67
2023/09/04 02:17:23;;;;;;;4.32;3.40;;;11.10;99.90;;;;;;5031211;28;20484;-67
2023/09/04 02:19:49;;;;;;;4.32;3.25;;;11.00;99.90;;;;;;5032019;28;20437;-68
2023/09/04 02:22:14;;;;;;;5.18;3.90;;;11.00;99.90;;;;;;5040691;28;20044;-68
2023/09/04 02:24:42;;;;;;;5.13;3.45;;;11.00;99.90;;;;;;5031432;28;20037;-68
2023/09/04 02:27:07;;;;;;;6.85;4.00;;;11.00;99.90;;;;;;5043385;28;20041;-68
2023/09/04 02:29:33;;;;;;;5.88;4.10;;;11.00;99.90;;;;;;5034314;28;20041;-68
2023/09/04 02:31:58;;;;;;;5.65;4.15;;;11.00;99.90;;;;;;5035478;28;20053;-68
2023/09/04 02:34:24;;;;;;;12.27;3.83;;;11.00;99.90;;;;;;5039994;28;20145;-68
2023/09/04 02:36:49;;;;;;;6.25;4.50;;;11.00;99.90;;;;;;5036545;28;20124;-69
2023/09/04 02:39:15;;;;;;;7.40;4.57;;;11.00;99.90;;;;;;5029856;28;20047;-68
2023/09/04 02:41:40;;;;;;;6.40;4.68;;;11.00;99.90;;;;;;5044528;28;20052;-68
2023/09/04 02:44:06;;;;;;;7.05;4.60;;;10.90;99.90;;;;;;5043168;28;20051;-68
2023/09/04 02:46:32;;;;;;;7.03;5.55;;;10.90;99.90;;;;;;5034570;28;20029;-67
2023/09/04 02:48:58;;;;;;;8.57;5.25;;;11.00;99.90;;;;;;5035197;28;20049;-68
2023/09/04 02:51:23;;;;;;;8.20;4.90;;;11.00;99.90;;;;;;5036222;28;20040;-68
2023/09/04 02:53:49;;;;;;;9.10;5.40;;;10.90;99.90;;;;;;5046131;28;20469;-68
2023/09/04 02:56:15;;;;;;;9.15;5.40;;;10.90;99.90;;;;;;5029784;28;20034;-67
2023/09/04 02:58:41;;;;;;;6.75;4.75;;;10.90;99.90;;;;;;5050739;28;20041;-68
2023/09/04 03:01:07;;;;;;;8.32;5.03;;;10.80;99.90;;;;;;5031532;28;20061;-67
2023/09/04 03:03:32;;;;;;;8.50;5.25;;;10.90;99.90;;;;;;5031923;28;20065;-68
2023/09/04 03:06:06;;;;;;;7.63;5.25;;;10.90;99.90;;;;;;5047907;28;20041;-67
2023/09/04 03:08:32;;;;;;;8.63;5.00;;;10.80;99.90;;;;;;5046004;28;20051;-68
2023/09/04 03:10:58;;;;;;;8.48;5.25;;;10.80;99.90;;;;;;5045733;28;20089;-68
2023/09/04 03:13:23;;;;;;;8.48;5.70;;;10.80;99.90;;;;;;5034321;28;20057;-68
2023/09/04 03:15:49;;;;;;;8.05;5.25;;;10.80;99.90;;;;;;5038739;28;20045;-68
2023/09/04 03:18:14;;;;;;;9.02;5.47;;;10.80;99.90;;;;;;5032561;28;20045;-68
2023/09/04 03:20:40;;;;;;;7.53;5.88;;;10.70;99.90;;;;;;5031796;28;20089;-68
2023/09/04 03:23:07;;;;;;;7.40;5.32;;;10.60;99.90;;;;;;5035659;28;20041;-67
2023/09/04 03:25:33;;;;;;;9.45;6.47;;;10.60;99.90;;;;;;5042686;28;20073;-68
2023/09/04 03:27:58;;;;;;;7.85;5.75;;;10.60;99.90;;;;;;5027838;28;20040;-68
2023/09/04 03:30:24;;;;;;;9.13;5.45;;;10.60;99.90;;;;;;5025878;28;20437;-68
2023/09/04 03:32:49;;;;;;;6.45;4.40;;;10.60;99.90;;;;;;5034347;28;20045;-68
2023/09/04 03:35:17;;;;;;;9.52;5.60;;;10.50;99.90;;;;;;5033494;28;20461;-68
2023/09/04 03:37:42;;;;;;;7.55;5.80;;;10.50;99.90;;;;;;5028962;28;20455;-68
2023/09/04 03:40:25;;;;;;;8.20;5.57;;;10.50;99.90;;;;;;5043785;28;20045;-68
2023/09/04 03:42:51;;;;;;;7.88;5.40;;;10.50;99.90;;;;;;5040365;28;20044;-68
2023/09/04 03:45:17;;;;;;;11.15;6.10;;;10.50;99.90;;;;;;5035067;28;20048;-68
2023/09/04 03:47:44;;;;;;;9.27;5.57;;;10.50;99.90;;;;;;5042935;28;20029;-67
2023/09/04 03:50:14;;;;;;;10.70;6.97;;;10.40;99.90;;;;;;5034963;28;20040;-68
2023/09/04 03:52:41;;;;;;;9.35;6.82;;;10.40;99.90;;;;;;5033536;28;20073;-68
2023/09/04 03:55:08;;;;;;;9.85;6.15;;;10.40;99.90;;;;;;5038040;28;20037;-67
2023/09/04 03:57:36;;;;;;;9.20;6.40;;;10.40;99.90;;;;;;5030304;28;20175;-68
2023/09/04 04:00:03;;;;;;;8.88;5.93;;;10.40;99.90;;;;;;5030969;28;20123;-67
2023/09/04 04:02:30;;;;;;;9.18;6.43;;;10.30;99.90;;;;;;5044506;28;20051;-68
2023/09/04 04:04:56;;;;;;;10.48;7.15;;;10.30;99.90;;;;;;5027081;28;20057;-67
2023/09/04 04:07:21;;;;;;;10.13;6.10;;;10.30;99.90;;;;;;5038047;28;20049;-68
2023/09/04 04:09:47;;;;;;;9.05;5.72;;;10.30;99.90;;;;;;5026837;28;20064;-68
2023/09/04 04:12:16;;;;;;;10.35;4.60;;;10.30;99.90;;;;;;5030811;28;20041;-68
2023/09/04 04:14:42;;;;;;;8.65;6.18;;;10.30;99.90;;;;;;5037162;28;20353;-68
2023/09/04 04:17:08;;;;;;;9.68;6.50;;;10.30;99.90;;;;;;5032203;28;20045;-68
2023/09/04 04:19:34;;;;;;;7.95;5.50;;;10.20;99.90;;;;;;5031635;28;20067;-67
2023/09/04 04:21:59;;;;;;;9.68;6.03;;;10.20;99.90;;;;;;5054197;28;20429;-67
2023/09/04 04:24:27;;;;;;;8.85;6.03;;;10.20;99.90;;;;;;5053117;28;20087;-67
2023/09/04 04:26:52;;;;;;;8.82;5.95;;;10.20;99.90;;;;;;5043290;28;20791;-67
2023/09/04 04:29:18;;;;;;;9.23;5.68;;;10.20;99.90;;;;;;5044607;28;20044;-67
2023/09/04 04:31:44;;;;;;;7.40;4.88;;;10.20;99.90;;;;;;5037490;28;20045;-67
2023/09/04 04:34:10;;;;;;;7.45;4.85;;;10.20;99.90;;;;;;5041216;28;20102;-67
2023/09/04 04:36:35;;;;;;;7.43;5.18;;;10.20;99.90;;;;;;5036452;28;20029;-67
2023/09/04 04:39:01;;;;;;;9.15;5.65;;;10.20;99.90;;;;;;5038845;28;20048;-67
2023/09/04 04:41:26;;;;;;;8.48;5.63;;;10.10;99.90;;;;;;5036560;28;20044;-67
2023/09/04 04:43:52;;;;;;;6.95;5.13;;;10.10;99.90;;;;;;5045718;28;20040;-67
2023/09/04 04:46:17;;;;;;;8.38;5.70;;;10.00;99.90;;;;;;5026475;28;20067;-67
2023/09/04 04:48:43;;;;;;;9.88;6.18;;;10.00;99.90;;;;;;5034159;28;20037;-67
2023/09/04 04:51:10;;;;;;;10.82;6.22;;;10.00;99.90;;;;;;5039553;28;20132;-67
2023/09/04 04:53:36;;;;;;;10.13;6.40;;;10.00;99.90;;;;;;5037432;28;20054;-68
2023/09/04 04:56:02;;;;;;;9.00;6.30;;;10.00;99.90;;;;;;5031400;28;20509;-67
2023/09/04 04:58:27;;;;;;;9.50;6.18;;;10.00;99.90;;;;;;5029305;28;20061;-67
2023/09/04 05:00:53;;;;;;;10.60;6.32;;;10.10;99.90;;;;;;5030192;28;20455;-67
2023/09/04 05:03:18;;;;;;;10.50;6.30;;;10.00;99.90;;;;;;5037226;28;20069;-67
2023/09/04 05:05:45;;;;;;;9.40;5.97;;;10.00;99.90;;;;;;5027329;28;20034;-67
2023/09/04 05:08:10;;;;;;;8.95;6.50;;;10.00;99.90;;;;;;5037803;28;20052;-68
2023/09/04 05:10:36;;;;;;;17.48;7.63;;;10.00;99.90;;;;;;5034456;28;20037;-67
2023/09/04 05:13:02;;;;;;;37.13;8.50;;;10.00;99.90;;;;;;5032983;28;20037;-67
2023/09/04 05:15:27;;;;;;;50.30;8.25;;;10.00;99.90;;;;;;5032739;28;20040;-67
2023/09/04 05:17:53;;;;;;;16.50;7.15;;;10.00;99.90;;;;;;5019519;28;20420;-67
2023/09/04 05:20:18;;;;;;;12.02;7.05;;;10.10;99.90;;;;;;5029126;28;20478;-67
2023/09/04 05:22:44;;;;;;;15.02;7.05;;;10.00;99.90;;;;;;5039271;28;20672;-67
2023/09/04 05:25:11;;;;;;;12.80;6.60;;;10.10;99.90;;;;;;5030422;28;20045;-67
2023/09/04 05:27:37;;;;;;;11.75;7.30;;;10.10;99.90;;;;;;5025456;28;20048;-67
2023/09/04 05:30:03;;;;;;;11.80;6.82;;;10.10;99.90;;;;;;5032601;28;20483;-68
2023/09/04 05:32:29;;;;;;;17.85;9.05;;;10.10;99.90;;;;;;5017272;28;20091;-67
2023/09/04 05:34:54;;;;;;;12.18;7.80;;;10.10;99.90;;;;;;5045016;28;20055;-67
2023/09/04 05:37:21;;;;;;;12.90;8.30;;;10.10;99.90;;;;;;5039728;28;20138;-67
2023/09/04 05:39:46;;;;;;;12.02;8.00;;;10.20;99.90;;;;;;5040798;28;20049;-67
2023/09/04 05:42:12;;;;;;;12.27;8.32;;;10.30;99.90;;;;;;5035229;28;20405;-67
2023/09/04 05:44:37;;;;;;;13.45;7.93;;;10.30;99.90;;;;;;5025121;28;20098;-67
2023/09/04 05:47:03;;;;;;;10.85;6.65;;;10.30;99.90;;;;;;5031786;28;20037;-68
2023/09/04 05:49:29;;;;;;;10.18;6.88;;;10.40;99.90;;;;;;5038494;28;20048;-68
2023/09/04 05:51:54;;;;;;;9.35;5.72;;;10.50;99.90;;;;;;5034960;28;20068;-68
2023/09/04 05:54:22;;;;;;;7.28;5.57;;;10.60;99.90;;;;;;5013436;28;20056;-68
2023/09/04 05:56:48;;;;;;;8.23;6.00;;;10.60;99.90;;;;;;5031920;28;20631;-68
2023/09/04 05:59:14;;;;;;;8.20;5.28;;;10.70;99.90;;;;;;5022920;28;20124;-68
2023/09/04 06:01:41;;;;;;;8.10;5.72;;;10.80;99.90;;;;;;5037702;28;20072;-68
2023/09/04 06:04:06;;;;;;;6.07;4.70;;;10.90;99.90;;;;;;5034985;28;20043;-68
2023/09/04 06:06:32;;;;;;;5.22;4.32;;;11.00;99.90;;;;;;5031349;28;20489;-68
2023/09/04 06:08:58;;;;;;;6.75;4.30;;;11.20;99.90;;;;;;5037348;28;20057;-68
2023/09/04 06:11:23;;;;;;;7.18;4.97;;;11.40;99.90;;;;;;5030076;28;20033;-68
2023/09/04 06:13:49;;;;;;;8.50;5.15;;;11.60;99.90;;;;;;5034979;28;20041;-68
2023/09/04 06:16:19;;;;;;;9.30;7.40;;;11.70;99.90;;;;;;5038713;28;20495;-68
2023/09/04 06:18:44;;;;;;;11.88;9.05;;;11.90;99.90;;;;;;5037870;28;20073;-69
2023/09/04 06:21:10;;;;;;;12.65;9.20;;;12.10;99.90;;;;;;5031517;28;20119;-69
2023/09/04 06:23:35;;;;;;;13.55;9.43;;;12.30;99.90;;;;;;5041433;28;20056;-69
2023/09/04 06:26:04;;;;;;;13.32;9.30;;;12.40;99.90;;;;;;5031978;28;20059;-69
2023/09/04 06:28:29;;;;;;;13.00;10.27;;;12.60;99.90;;;;;;5038856;28;20073;-69
2023/09/04 06:30:56;;;;;;;18.83;11.55;;;12.80;99.90;;;;;;5027672;28;20799;-69
2023/09/04 06:33:24;;;;;;;16.05;11.23;;;13.00;99.90;;;;;;5029684;28;20386;-69
2023/09/04 06:35:50;;;;;;;17.48;11.18;;;13.20;99.90;;;;;;5040046;28;20111;-69
2023/09/04 06:38:15;;;;;;;16.98;11.15;;;13.50;99.90;;;;;;5042989;28;20080;-69
2023/09/04 06:40:42;;;;;;;14.60;9.93;;;13.80;99.90;;;;;;5037850;28;20086;-70
2023/09/04 06:43:08;;;;;;;12.55;9.52;;;14.10;99.90;;;;;;5046185;28;20045;-70
2023/09/04 06:45:36;;;;;;;16.40;10.52;;;14.40;99.90;;;;;;5032711;28;20410;-70
2023/09/04 06:48:02;;;;;;;14.77;9.85;;;14.50;99.90;;;;;;5019408;28;20049;-69
2023/09/04 06:50:27;;;;;;;16.70;10.93;;;14.80;99.90;;;;;;5020625;28;20388;-70
2023/09/04 06:52:53;;;;;;;13.95;10.45;;;15.10;99.90;;;;;;5032627;28;20056;-70
2023/09/04 06:55:19;;;;;;;14.02;10.20;;;15.30;99.90;;;;;;5037383;28;20056;-70
2023/09/04 06:57:44;;;;;;;14.23;10.82;;;15.50;99.90;;;;;;5033423;28;20076;-70
2023/09/04 07:00:11;;;;;;;13.27;10.32;;;15.70;99.90;;;;;;5028713;28;20037;-70
2023/09/04 07:02:37;;;;;;;13.07;10.18;;;15.90;99.90;;;;;;5031734;28;20508;-69
2023/09/04 07:05:04;;;;;;;12.95;9.52;;;16.10;99.90;;;;;;5036606;28;20041;-70
2023/09/04 07:07:31;;;;;;;11.05;8.77;;;16.20;99.90;;;;;;5033264;28;20393;-70
2023/09/04 07:09:56;;;;;;;11.80;8.80;;;16.40;99.90;;;;;;5030317;28;20037;-70
2023/09/04 07:12:22;;;;;;;12.82;9.13;;;16.40;99.90;;;;;;5039902;28;20415;-70
2023/09/04 07:14:48;;;;;;;13.80;9.65;;;16.60;99.90;;;;;;5033973;28;20041;-70
2023/09/04 07:17:13;;;;;;;10.50;8.40;;;16.70;99.90;;;;;;5028865;28;20099;-71
2023/09/04 07:19:39;;;;;;;11.55;9.00;;;16.90;99.90;;;;;;5043158;28;20429;-70
2023/09/04 07:22:05;;;;;;;10.88;8.02;;;17.10;99.90;;;;;;5050346;28;20047;-72
2023/09/04 07:24:30;;;;;;;9.80;8.80;;;17.30;99.90;;;;;;5035613;28;20044;-70
2023/09/04 07:26:56;;;;;;;8.98;7.78;;;17.50;99.90;;;;;;5027226;28;20157;-71
2023/09/04 07:29:21;;;;;;;10.60;8.15;;;17.70;99.90;;;;;;5037628;28;20053;-71
2023/09/04 07:31:47;;;;;;;9.82;7.18;;;17.90;99.90;;;;;;5034515;28;20476;-71
2023/09/04 07:34:13;;;;;;;8.85;7.47;;;18.10;99.90;;;;;;5041910;28;20032;-72
2023/09/04 07:36:38;;;;;;;8.38;7.47;;;18.20;99.90;;;;;;5035693;28;20391;-72
2023/09/04 07:39:04;;;;;;;8.40;7.22;;;18.40;99.90;;;;;;5039112;28;20103;-72
2023/09/04 07:41:30;;;;;;;8.75;7.30;;;18.60;99.90;;;;;;5024559;28;20052;-70
2023/09/04 07:43:55;;;;;;;9.85;7.13;;;18.80;99.90;;;;;;5045518;28;20088;-69
2023/09/04 07:46:21;;;;;;;7.82;7.03;;;19.00;99.90;;;;;;5013817;28;20081;-70
2023/09/04 07:48:47;;;;;;;9.07;7.47;;;19.10;99.90;;;;;;5036411;28;20551;-70
2023/09/04 07:51:12;;;;;;;9.43;7.60;;;19.10;99.90;;;;;;5038249;28;20041;-70
2023/09/04 07:53:38;;;;;;;8.32;6.80;;;19.10;99.90;;;;;;5021805;28;20331;-70
2023/09/04 07:56:04;;;;;;;7.72;6.53;;;19.10;99.90;;;;;;5032102;28;20793;-72
2023/09/04 07:58:29;;;;;;;7.18;6.40;;;19.20;99.90;;;;;;5030836;28;20555;-72
2023/09/04 08:00:55;;;;;;;8.27;6.63;;;19.20;99.90;;;;;;5037577;28;20044;-72
2023/09/04 08:03:21;;;;;;;7.95;7.15;;;19.30;99.40;;;;;;5046634;28;20136;-72
2023/09/04 08:05:47;;;;;;;7.28;6.57;;;19.30;98.10;;;;;;5031407;28;20048;-72
2023/09/04 08:08:12;;;;;;;7.78;6.57;;;19.40;97.50;;;;;;5035143;28;20036;-71
2023/09/04 08:10:40;;;;;;;9.05;6.20;;;19.50;96.80;;;;;;5040459;28;20033;-70
2023/09/04 08:13:18;;;;;;;9.02;6.72;;;19.60;96.20;;;;;;5025521;28;20037;-72
2023/09/04 08:15:44;;;;;;;9.15;6.80;;;19.80;95.00;;;;;;5019775;28;20099;-73
2023/09/04 08:18:09;;;;;;;8.77;7.03;;;19.90;94.50;;;;;;5032233;28;20116;-72
2023/09/04 08:20:36;;;;;;;7.82;6.57;;;20.10;93.40;;;;;;5032671;28;20112;-69
2023/09/04 08:23:02;;;;;;;7.60;6.88;;;20.50;92.40;;;;;;5017611;28;20388;-69
2023/09/04 08:25:28;;;;;;;7.88;7.07;;;20.90;91.00;;;;;;5043187;28;20033;-72
2023/09/04 08:27:54;;;;;;;6.60;6.00;;;21.30;89.70;;;;;;5039772;28;20107;-69
2023/09/04 08:30:19;;;;;;;6.25;5.63;;;21.90;86.60;;;;;;5035205;28;20044;-72
2023/09/04 08:32:45;;;;;;;7.30;6.03;;;22.40;82.40;;;;;;5043561;28;20120;-73
2023/09/04 08:35:11;;;;;;;5.65;5.15;;;22.80;79.70;;;;;;5028972;28;20033;-73
2023/09/04 08:37:37;;;;;;;5.45;4.90;;;23.20;79.10;;;;;;5037565;28;20135;-70
2023/09/04 08:40:03;;;;;;;6.03;5.05;;;23.80;77.30;;;;;;5058028;28;20619;-73
2023/09/04 08:42:29;;;;;;;4.72;3.97;;;24.20;75.20;;;;;;5050402;28;20129;-78
2023/09/04 08:44:56;;;;;;;5.82;3.80;;;24.30;72.30;;;;;;5023301;28;20424;-74
2023/09/04 08:47:23;;;;;;;3.75;3.00;;;24.60;70.90;;;;;;5027736;28;20041;-67
2023/09/04 08:49:50;;;;;;;3.75;3.45;;;24.90;70.40;;;;;;5031274;28;20117;-72
2023/09/04 08:52:16;;;;;;;4.30;3.25;;;25.20;67.00;;;;;;5044376;28;20163;-70
2023/09/04 08:54:42;;;;;;;3.63;3.33;;;25.40;65.70;;;;;;5037644;28;20111;-70
2023/09/04 08:57:11;;;;;;;4.07;3.65;;;25.40;64.70;;;;;;5038135;28;20370;-68
2023/09/04 08:59:36;;;;;;;4.07;3.53;;;25.70;63.90;;;;;;5042797;28;20488;-71
2023/09/04 09:02:04;;;;;;;3.67;3.17;;;25.30;64.00;;;;;;5039557;28;20053;-69
2023/09/04 09:04:34;;;;;;;3.88;3.00;;;24.90;64.00;;;;;;5031301;28;20043;-71
2023/09/04 09:07:01;;;;;;;4.80;3.55;;;24.50;64.90;;;;;;5022502;28;21478;-70
2023/09/04 09:09:28;;;;;;;3.60;3.25;;;24.00;64.30;;;;;;5046364;28;20049;-70
2023/09/04 09:11:54;;;;;;;5.95;3.10;;;23.40;65.50;;;;;;5039919;28;20111;-69
2023/09/04 09:14:29;;;;;;;4.47;3.40;;;23.20;66.50;;;;;;5049826;28;20092;-73
2023/09/04 09:17:05;;;;;;;4.43;3.15;;;23.10;65.90;;;;;;5032492;28;20385;-69
2023/09/04 09:19:35;;;;;;;4.72;3.20;;;23.40;65.60;;;;;;5038831;28;20075;-73
2023/09/04 09:22:17;;;;;;;5.75;3.38;;;23.50;65.10;;;;;;5041040;28;20083;-69
2023/09/04 09:24:59;;;;;;;3.53;2.78;;;23.70;63.60;;;;;;5041243;28;20056;-70
2023/09/04 09:27:29;;;;;;;4.30;2.85;;;23.50;63.80;;;;;;5033484;28;20034;-72
2023/09/04 09:29:59;;;;;;;3.10;2.80;;;23.30;65.30;;;;;;5027255;28;20045;-71
2023/09/04 09:32:32;;;;;;;4.93;2.65;;;23.10;65.40;;;;;;5047440;28;20517;-68
2023/09/04 09:34:59;;;;;;;4.40;2.78;;;22.80;65.10;;;;;;5044098;28;20085;-71
2023/09/04 09:37:26;;;;;;;2.97;2.47;;;22.60;67.30;;;;;;5038504;28;20055;-71
2023/09/04 09:39:52;;;;;;;3.75;2.30;;;22.50;66.70;;;;;;5047596;28;20045;-72
2023/09/04 09:42:20;;;;;;;2.72;2.20;;;22.50;66.80;;;;;;5041256;28;20574;-71
2023/09/04 09:44:46;;;;;;;3.45;1.90;;;22.50;66.90;;;;;;5034694;28;20049;-69
2023/09/04 09:47:12;;;;;;;3.38;2.00;;;22.30;66.10;;;;;;5056523;28;20041;-71
2023/09/04 09:49:40;;;;;;;4.13;2.28;;;22.30;65.80;;;;;;5037257;28;20596;-74
2023/09/04 09:52:13;;;;;;;4.20;1.92;;;22.20;66.70;;;;;;5034640;28;20060;-74
2023/09/04 09:54:44;;;;;;;3.03;1.95;;;22.40;66.70;;;;;;5042110;28;20042;-73
2023/09/04 09:57:14;;;;;;;2.85;2.22;;;22.20;65.50;;;;;;5017116;28;20484;-73
2023/09/04 09:59:46;;;;;;;2.67;2.20;;;22.40;65.90;;;;;;5038829;28;20032;-72
2023/09/04 10:02:23;;;;;;;3.60;2.10;;;22.40;65.20;;;;;;5018487;28;20037;-72
2023/09/04 10:04:49;;;;;;;2.97;1.92;;;22.50;65.80;;;;;;5032732;28;20033;-70
2023/09/04 10:07:19;;;;;;;4.30;2.35;;;22.60;65.70;;;;;;5042558;28;20033;-71
2023/09/04 10:09:48;;;;;;;3.10;2.45;;;22.50;65.30;;;;;;5046297;28;20147;-72
2023/09/04 10:12:34;;;;;;;4.03;2.30;;;22.40;65.70;;;;;;5037787;28;20103;-72
2023/09/04 10:15:01;;;;;;;4.95;2.50;;;22.50;66.60;;;;;;5030505;28;20046;-74
2023/09/04 10:18:10;;;;;;;2.80;2.50;;;22.40;66.10;;;;;;5033618;28;20124;-72
2023/09/04 10:20:36;;;;;;;2.90;2.20;;;22.40;66.10;;;;;;5041298;28;20041;-70
2023/09/04 10:23:24;;;;;;;4.35;2.25;;;22.40;65.90;;;;;;5032076;28;20481;-74
2023/09/04 10:25:50;;;;;;;3.78;2.40;;;22.40;65.90;;;;;;5029781;28;20115;-72
2023/09/04 10:28:23;;;;;;;3.15;2.50;;;22.40;65.30;;;;;;5041728;28;20033;-71
2023/09/04 10:30:53;;;;;;;5.85;2.92;;;22.30;65.50;;;;;;5044045;28;20452;-72
2023/09/04 10:33:20;;;;;;;2.97;2.47;;;22.40;65.20;;;;;;5043934;28;20037;-74
2023/09/04 10:35:46;;;;;;;3.97;2.53;;;22.40;66.20;;;;;;5047271;28;20053;-72
2023/09/04 10:38:12;;;;;;;3.17;2.30;;;22.40;65.60;;;;;;5042840;28;20037;-72
2023/09/04 10:40:38;;;;;;;3.63;2.00;;;22.30;65.90;;;;;;5044760;28;20428;-73
2023/09/04 10:43:04;;;;;;;3.45;2.50;;;22.40;65.30;;;;;;5031397;28;22054;-73
2023/09/04 10:45:31;;;;;;;4.22;2.45;;;22.40;64.90;;;;;;5042532;28;20120;-70
2023/09/04 10:47:57;;;;;;;5.13;2.80;;;22.40;64.80;;;;;;5044643;28;20124;-70
2023/09/04 10:50:27;;;;;;;3.53;2.90;;;22.40;64.90;;;;;;5033949;28;20387;-71
2023/09/04 10:52:54;;;;;;;4.95;2.60;;;22.40;64.80;;;;;;5029262;28;20060;-73
2023/09/04 10:55:19;;;;;;;4.88;3.15;;;22.40;65.80;;;;;;5030312;28;20041;-72
2023/09/04 10:57:53;;;;;;;4.68;2.35;;;22.40;65.30;;;;;;5020831;28;20100;-71
2023/09/04 11:00:29;;;;;;;3.08;2.47;;;22.30;65.00;;;;;;5017919;28;20103;-72
2023/09/04 11:02:55;;;;;;;5.60;2.65;;;22.30;65.20;;;;;;5046768;28;20043;-69
2023/09/04 11:05:22;;;;;;;3.05;2.10;;;22.30;65.20;;;;;;5030118;28;20038;-70
2023/09/04 11:07:48;;;;;;;6.95;2.20;;;22.50;65.50;;;;;;5014241;28;20113;-74
2023/09/04 11:10:13;;;;;;;2.97;2.50;;;22.50;64.80;;;;;;5046272;28;20040;-69
2023/09/04 11:12:39;;;;;;;3.75;2.33;;;22.50;64.00;;;;;;5043344;28;20052;-71
2023/09/04 11:15:16;;;;;;;2.53;1.98;;;22.40;64.00;;;;;;5009903;28;20056;-71
2023/09/04 11:17:48;;;;;;;3.88;2.00;;;22.50;64.20;;;;;;5038946;28;20045;-71
2023/09/04 11:20:15;;;;;;;3.95;1.85;;;22.50;64.60;;;;;;5041940;28;20037;-72
2023/09/04 11:22:47;;;;;;;3.35;2.10;;;22.60;63.10;;;;;;5050035;28;20045;-71
2023/09/04 11:25:12;;;;;;;3.83;2.10;;;22.60;63.30;;;;;;5033387;28;20038;-71
2023/09/04 11:27:38;;;;;;;3.83;2.20;;;22.60;63.40;;;;;;5032899;28;20638;-70
2023/09/04 11:30:04;;;;;;;3.42;2.03;;;22.80;63.30;;;;;;5041541;28;20029;-72
2023/09/04 11:32:35;;;;;;;2.65;1.90;;;22.70;63.00;;;;;;5044284;28;20077;-72
2023/09/04 11:35:01;;;;;;;4.07;2.53;;;22.80;63.50;;;;;;5015812;28;20136;-70
2023/09/04 11:37:32;;;;;;;4.55;1.80;;;22.80;62.70;;;;;;5040828;28;20484;-72
2023/09/04 11:40:00;;;;;;;4.18;1.98;;;22.80;62.00;;;;;;5043446;28;20469;-69
2023/09/04 11:42:27;;;;;;;2.08;1.88;;;22.90;62.00;;;;;;5031556;28;20453;-72
2023/09/04 11:44:53;;;;;;;3.05;1.90;;;22.90;61.30;;;;;;5028944;28;20154;-69
2023/09/04 11:47:20;;;;;;;3.10;2.00;;;22.90;61.30;;;;;;5038815;28;20678;-69
2023/09/04 11:49:46;;;;;;;2.35;1.92;;;23.00;61.40;;;;;;5026429;28;20045;-71
2023/09/04 11:52:12;;;;;;;2.40;2.10;;;23.00;61.00;;;;;;5036187;28;20488;-70
2023/09/04 11:54:41;;;;;;;1.92;1.75;;;23.00;61.10;;;;;;5029871;28;20342;-72
2023/09/04 11:57:09;;;;;;;2.85;2.03;;;23.00;61.60;;;;;;5032942;28;20040;-74
2023/09/04 11:59:36;;;;;;;2.22;1.92;;;23.10;61.50;;;;;;5031513;28;20465;-71
2023/09/04 12:02:03;;;;;;;2.53;1.90;;;23.10;61.60;;;;;;5032634;28;20176;-71
2023/09/04 12:04:31;;;;;;;2.80;1.95;;;23.20;61.30;;;;;;5032089;28;20032;-70
2023/09/04 12:07:02;;;;;;;2.97;1.83;;;23.20;62.60;;;;;;5031540;28;20041;-71
2023/09/04 12:09:28;;;;;;;;;;;23.20;61.00;;;;;;5027878;28;20087;-72
2023/09/04 12:11:54;;;;;;;4.38;1.90;;;23.20;60.00;;;;;;5042674;28;19916;-72
2023/09/04 12:14:20;;;;;;;3.67;1.88;;;23.20;60.70;;;;;;5037242;28;20049;-72
2023/09/04 12:16:46;;;;;;;1.85;1.63;;;23.40;60.50;;;;;;5046579;28;20094;-70
2023/09/04 12:19:12;;;;;;;2.78;1.75;;;23.50;60.60;;;;;;5044598;28;20393;-74
2023/09/04 12:21:39;;;;;;;3.10;1.88;;;23.50;60.60;;;;;;5046077;28;20044;-71
2023/09/04 12:24:12;;;;;;;1.65;1.55;;;23.70;60.10;;;;;;5036368;28;20033;-71
2023/09/04 12:26:38;;;;;;;2.60;1.80;;;23.80;59.60;;;;;;5033481;28;20025;-72
2023/09/04 12:29:03;;;;;;;2.15;1.95;;;23.90;59.30;;;;;;5044595;28;20107;-73
2023/09/04 12:31:30;;;;;;;1.92;1.63;;;24.10;58.70;;;;;;5046574;28;20051;-72
2023/09/04 12:33:56;;;;;;;2.35;2.00;;;24.20;57.80;;;;;;5033835;28;20039;-71
2023/09/04 12:36:21;;;;;;;4.45;1.90;;;24.40;58.10;;;;;;5045839;28;20424;-71
2023/09/04 12:38:47;;;;;;;2.28;1.70;;;24.50;58.30;;;;;;5043176;28;20073;-69
2023/09/04 12:41:13;;;;;;;2.92;1.50;;;24.50;57.60;;;;;;5042348;28;20129;-73
2023/09/04 12:43:39;;;;;;;1.42;1.10;;;24.80;56.70;;;;;;5045288;28;20052;-70
2023/09/04 12:46:05;;;;;;;3.08;1.50;;;24.90;56.60;;;;;;5023538;28;20049;-72